ENFB/FBU METAR and TAF weather

Enter ICAO airport designator
Station Type Date Time Source
ENFB METAR 2021/09/24 02:50 UTC NOAA

ENFB 240250Z AUTO 18035KT 5000NDV -RA BKN009/// 09/08 Q0996 W///S6


Station Type Date Time Source
ENFB Decoded METAR 2021/09/24 02:50 UTC NOAA

Oslo / Fornebu, Norway (ENFB) 59-54N 010-38E 17M
Sep 23, 2021 - 10:50 PM EDT / 2021.09.24 0250 UTC
Wind: from the S (180 degrees) at 40 MPH (35 KT):0
Sky conditions: mostly cloudy
Weather: light rain
Temperature: 48 F (9 C)
Dew Point: 46 F (8 C)
Relative Humidity: 93%
Pressure (altimeter): 29.41 in. Hg (0996 hPa)
ob: ENFB 240250Z AUTO 18035KT 5000NDV -RA BKN009/// 09/08 Q0996 W///S6
cycle: 3

Station Type Date Time Source
ENFB TAF UTC NOAA

Error!

Example: see airport list